Time;durP1;ratioP1;P1;durP2;ratioP2;P2;SDS_P1;SDS_P2;PMS_P1;PMS_P2;Temp;Humidity;BMP_temperature;BMP_pressure;BME280_temperature;BME280_humidity;BME280_pressure;Samples;Min_cycle;Max_cycle;Signal;HPM_P1;HPM_P2
2021/11/11 00:00:29;;;;;;;18.63;10.90;;;;;;;1.01;100.00;101690.19;5027353;28;20044;-83
2021/11/11 00:02:58;;;;;;;17.20;10.33;;;;;;;0.99;100.00;101694.41;5047969;28;20040;-83
2021/11/11 00:14:25;;;;;;;17.93;10.73;;;;;;;0.89;100.00;101694.06;5081330;28;20101;-83
2021/11/11 00:16:51;;;;;;;15.67;9.77;;;;;;;0.85;100.00;101700.88;5048292;28;20135;-84
2021/11/11 00:19:18;;;;;;;17.40;10.67;;;;;;;0.88;100.00;101698.38;5039177;28;20044;-84
2021/11/11 00:21:45;;;;;;;17.03;10.50;;;;;;;0.78;100.00;101697.16;5036931;28;20085;-83
2021/11/11 00:24:11;;;;;;;16.43;9.83;;;;;;;0.77;100.00;101692.81;5037660;28;20085;-83
2021/11/11 00:26:38;;;;;;;16.77;10.60;;;;;;;0.74;100.00;101697.00;5032160;28;20047;-84
2021/11/11 00:29:05;;;;;;;16.47;10.40;;;;;;;0.73;100.00;101695.22;5035425;28;20044;-83
2021/11/11 00:31:31;;;;;;;17.13;10.80;;;;;;;0.71;100.00;101697.78;5043251;28;20513;-83
2021/11/11 00:33:58;;;;;;;19.10;10.90;;;;;;;0.66;100.00;101688.91;5049250;28;20059;-83
2021/11/11 00:36:25;;;;;;;15.03;10.47;;;;;;;0.64;100.00;101687.97;5038071;28;20040;-83
2021/11/11 00:38:51;;;;;;;19.40;11.13;;;;;;;0.60;100.00;101680.03;5037167;28;20036;-83
2021/11/11 00:41:18;;;;;;;14.40;10.20;;;;;;;0.64;100.00;101672.38;5036257;28;20052;-84
2021/11/11 00:43:45;;;;;;;16.50;10.73;;;;;;;0.62;100.00;101678.34;5051087;28;20044;-83
2021/11/11 00:46:12;;;;;;;19.27;9.93;;;;;;;0.62;100.00;101680.97;5038046;28;20705;-82
2021/11/11 00:48:39;;;;;;;17.90;9.93;;;;;;;0.65;100.00;101681.06;5034250;28;20127;-83
2021/11/11 00:51:06;;;;;;;16.53;9.47;;;;;;;0.61;100.00;101687.00;5035605;28;20432;-83
2021/11/11 00:53:32;;;;;;;16.27;9.33;;;;;;;0.53;100.00;101687.59;5037375;28;20055;-82
2021/11/11 00:56:00;;;;;;;19.47;10.90;;;;;;;0.53;100.00;101699.72;5055181;28;20040;-82
2021/11/11 00:58:28;;;;;;;14.93;9.80;;;;;;;0.45;100.00;101695.94;5037588;28;20044;-82
2021/11/11 01:01:00;;;;;;;16.53;9.57;;;;;;;0.48;100.00;101696.94;5055672;28;20505;-83
2021/11/11 01:03:39;;;;;;;14.67;8.97;;;;;;;0.41;100.00;101684.53;5039587;28;20051;-82
2021/11/11 01:06:10;;;;;;;17.10;9.67;;;;;;;0.36;100.00;101687.81;5039748;28;20041;-83
2021/11/11 01:08:38;;;;;;;16.90;10.77;;;;;;;0.35;100.00;101694.72;5021415;28;20043;-83
2021/11/11 01:11:05;;;;;;;17.53;10.20;;;;;;;0.35;100.00;101684.31;5039335;28;20044;-82
2021/11/11 01:13:33;;;;;;;15.97;9.90;;;;;;;0.39;100.00;101681.00;5075902;23;20057;-82
2021/11/11 01:16:00;;;;;;;18.63;10.50;;;;;;;0.31;100.00;101672.03;5021765;28;20044;-82
2021/11/11 01:18:27;;;;;;;14.30;9.00;;;;;;;0.26;100.00;101665.78;5019023;28;20045;-84
2021/11/11 01:20:54;;;;;;;16.93;9.67;;;;;;;0.23;100.00;101669.13;5011962;28;20095;-82
2021/11/11 01:23:20;;;;;;;16.67;9.97;;;;;;;0.17;100.00;101668.94;5021098;28;20048;-85
2021/11/11 01:25:47;;;;;;;15.83;9.87;;;;;;;0.18;100.00;101662.91;5019145;28;20041;-82
2021/11/11 01:28:14;;;;;;;16.93;9.93;;;;;;;0.17;100.00;101655.94;5033292;28;20053;-84
2021/11/11 01:30:43;;;;;;;19.47;10.33;;;;;;;0.16;100.00;101654.13;5018406;28;20048;-79
2021/11/11 01:33:12;;;;;;;17.27;10.17;;;;;;;0.16;100.00;101656.72;5018263;28;20624;-81
2021/11/11 01:35:39;;;;;;;17.60;11.03;;;;;;;0.14;100.00;101663.59;5017882;28;20044;-82
2021/11/11 01:38:06;;;;;;;17.60;10.93;;;;;;;0.06;100.00;101648.53;5018654;28;20078;-82
2021/11/11 01:40:32;;;;;;;15.97;9.63;;;;;;;0.09;100.00;101648.69;5017966;28;20045;-84
2021/11/11 01:43:01;;;;;;;16.63;10.37;;;;;;;0.03;100.00;101644.13;4974780;28;20041;-83
2021/11/11 01:45:34;;;;;;;19.20;11.10;;;;;;;0.05;100.00;101647.66;5016259;28;20049;-83
2021/11/11 01:48:02;;;;;;;14.93;9.67;;;;;;;0.03;100.00;101648.44;5034412;28;20041;-83
2021/11/11 01:50:29;;;;;;;16.07;9.60;;;;;;;0.04;100.00;101647.59;4934111;28;20291;-82
2021/11/11 01:52:58;;;;;;;18.77;9.93;;;;;;;0.01;100.00;101639.72;5018638;28;20045;-84
2021/11/11 01:55:24;;;;;;;15.63;9.83;;;;;;;-0.05;100.00;101636.03;5028783;28;20094;-83
2021/11/11 01:57:51;;;;;;;16.60;9.70;;;;;;;-0.05;100.00;101643.84;5029769;28;20114;-84
2021/11/11 02:00:27;;;;;;;20.10;10.50;;;;;;;-0.03;100.00;101633.50;5014917;28;20049;-83
2021/11/11 02:02:55;;;;;;;14.00;8.77;;;;;;;-0.04;100.00;101630.00;5018492;28;20501;-80
2021/11/11 02:05:22;;;;;;;17.03;10.23;;;;;;;-0.05;100.00;101624.75;4950069;28;20037;-83
2021/11/11 02:07:50;;;;;;;17.83;10.07;;;;;;;-0.07;100.00;101613.44;5034628;28;20056;-82
2021/11/11 02:10:17;;;;;;;15.67;9.30;;;;;;;-0.07;100.00;101614.31;5012862;28;20125;-83
2021/11/11 02:12:45;;;;;;;18.87;11.13;;;;;;;-0.10;100.00;101616.78;5013121;28;20049;-83
2021/11/11 02:15:13;;;;;;;19.17;10.50;;;;;;;-0.12;100.00;101615.84;5017239;28;20052;-82
2021/11/11 02:17:40;;;;;;;13.57;10.07;;;;;;;-0.13;100.00;101623.59;5015227;28;20037;-82
2021/11/11 02:20:11;;;;;;;18.60;10.77;;;;;;;-0.18;100.00;101623.41;4946407;28;20080;-82
2021/11/11 02:22:38;;;;;;;18.53;9.77;;;;;;;-0.17;100.00;101626.88;4964239;28;20052;-84
2021/11/11 02:25:17;;;;;;;16.87;10.13;;;;;;;-0.18;100.00;101622.50;5022813;28;20037;-82
2021/11/11 02:27:44;;;;;;;13.87;8.70;;;;;;;-0.21;100.00;101617.22;5001355;28;20061;-83
2021/11/11 02:30:14;;;;;;;18.27;10.47;;;;;;;-0.21;100.00;101618.09;4999206;28;20591;-84
2021/11/11 02:32:41;;;;;;;14.33;9.07;;;;;;;-0.21;100.00;101618.09;5017976;28;20072;-83
2021/11/11 02:35:10;;;;;;;16.50;9.37;;;;;;;-0.18;100.00;101625.13;4941030;28;20064;-81
2021/11/11 02:37:39;;;;;;;19.00;10.00;;;;;;;-0.18;100.00;101630.31;5010532;28;20048;-83
2021/11/11 02:40:22;;;;;;;19.53;10.87;;;;;;;-0.23;100.00;101626.66;5012297;28;20041;-83
2021/11/11 02:42:49;;;;;;;17.17;9.47;;;;;;;-0.30;100.00;101625.53;4998703;28;20049;-82
2021/11/11 02:45:21;;;;;;;14.67;9.70;;;;;;;-0.31;100.00;101621.16;5031583;28;20036;-83
2021/11/11 02:47:50;;;;;;;15.70;10.40;;;;;;;-0.33;100.00;101625.44;5031647;28;20514;-84
2021/11/11 02:50:17;;;;;;;17.63;9.70;;;;;;;-0.33;100.00;101615.03;5015908;28;20037;-82
2021/11/11 02:52:45;;;;;;;19.80;10.47;;;;;;;-0.34;100.00;101610.66;5022521;28;20041;-82
2021/11/11 02:55:12;;;;;;;16.73;9.50;;;;;;;-0.30;100.00;101622.94;5006339;28;20037;-84
2021/11/11 02:57:41;;;;;;;17.83;10.27;;;;;;;-0.37;100.00;101613.13;5030350;28;20045;-83
2021/11/11 03:00:20;;;;;;;15.87;10.27;;;;;;;-0.34;100.00;101618.44;5000136;28;20486;-83
2021/11/11 03:02:49;;;;;;;17.27;9.87;;;;;;;-0.40;100.00;101616.50;5029344;28;20632;-82
2021/11/11 03:05:19;;;;;;;14.00;9.03;;;;;;;-0.39;100.00;101607.00;5033973;28;20099;-84
2021/11/11 03:07:46;;;;;;;21.93;11.63;;;;;;;-0.30;100.00;101605.66;5030266;28;20087;-85
2021/11/11 03:10:16;;;;;;;19.43;11.33;;;;;;;-0.24;100.00;101615.41;5017961;28;20041;-84
2021/11/11 03:12:44;;;;;;;18.97;11.47;;;;;;;-0.26;100.00;101623.94;4937092;28;20457;-84
2021/11/11 03:15:11;;;;;;;20.07;11.03;;;;;;;-0.19;100.00;101625.94;5001426;28;20132;-84
2021/11/11 03:17:39;;;;;;;17.97;10.10;;;;;;;-0.29;100.00;101619.50;5018814;28;20048;-83
2021/11/11 03:20:06;;;;;;;15.70;10.20;;;;;;;-0.40;100.00;101610.44;5018214;28;20041;-84
2021/11/11 03:22:33;;;;;;;21.50;12.87;;;;;;;-0.29;100.00;101609.13;5034517;28;20056;-84
2021/11/11 03:25:00;;;;;;;21.70;13.03;;;;;;;-0.13;100.00;101608.88;5031617;28;20067;-84
2021/11/11 03:27:27;;;;;;;21.63;11.17;;;;;;;-0.25;100.00;101620.50;5030462;28;20045;-83
2021/11/11 03:29:54;;;;;;;20.17;10.93;;;;;;;-0.32;100.00;101607.31;5033455;28;20075;-84
2021/11/11 03:32:21;;;;;;;18.57;11.57;;;;;;;-0.29;100.00;101606.53;5019229;28;20067;-83
2021/11/11 03:34:49;;;;;;;21.17;11.80;;;;;;;-0.21;100.00;101609.41;5034145;28;20044;-82
2021/11/11 03:37:16;;;;;;;23.73;11.97;;;;;;;-0.15;100.00;101614.84;4934361;28;20037;-84
2021/11/11 03:39:43;;;;;;;20.17;11.77;;;;;;;-0.15;100.00;101620.06;5017568;28;20049;-83
2021/11/11 03:42:11;;;;;;;18.17;10.37;;;;;;;-0.16;100.00;101621.78;5016186;28;20066;-83
2021/11/11 03:44:40;;;;;;;21.97;11.13;;;;;;;-0.22;100.00;101616.34;5000722;28;20040;-84
2021/11/11 03:47:07;;;;;;;21.87;11.90;;;;;;;-0.16;100.00;101611.38;5012348;28;20041;-83
2021/11/11 03:49:34;;;;;;;19.00;11.43;;;;;;;-0.06;100.00;101613.50;5016641;28;20080;-84
2021/11/11 03:52:02;;;;;;;17.67;10.20;;;;;;;-0.13;100.00;101615.78;5010405;28;20529;-82
2021/11/11 03:54:29;;;;;;;19.03;10.77;;;;;;;-0.17;100.00;101630.38;5031597;28;20045;-82
2021/11/11 03:56:57;;;;;;;18.97;12.00;;;;;;;-0.16;100.00;101632.16;5014436;28;20433;-84
2021/11/11 03:59:26;;;;;;;23.50;13.97;;;;;;;-0.15;100.00;101630.44;5016404;28;20465;-83
2021/11/11 04:01:53;;;;;;;21.30;13.27;;;;;;;-0.14;100.00;101620.09;5031668;28;20088;-82
2021/11/11 04:04:20;;;;;;;26.90;13.07;;;;;;;-0.11;100.00;101620.22;5036026;28;20088;-83
2021/11/11 04:06:48;;;;;;;23.53;14.17;;;;;;;-0.11;100.00;101616.72;4998059;28;20451;-82
2021/11/11 04:09:15;;;;;;;28.20;14.50;;;;;;;-0.05;100.00;101623.06;5013254;28;20041;-82
2021/11/11 04:11:42;;;;;;;24.33;13.73;;;;;;;-0.05;100.00;101622.16;5012890;28;20059;-82
2021/11/11 04:14:10;;;;;;;25.40;14.43;;;;;;;-0.04;100.00;101617.03;5016382;28;20048;-83
2021/11/11 04:16:37;;;;;;;24.67;12.47;;;;;;;-0.02;100.00;101612.75;5028895;28;20095;-82
2021/11/11 04:19:03;;;;;;;27.17;14.37;;;;;;;0.01;100.00;101605.94;4964871;28;20090;-82
2021/11/11 04:21:30;;;;;;;25.93;13.37;;;;;;;0.02;100.00;101608.59;5015927;28;20051;-82
2021/11/11 04:23:57;;;;;;;28.77;14.77;;;;;;;0.05;100.00;101607.81;5031896;28;20045;-83
2021/11/11 04:26:27;;;;;;;29.17;14.80;;;;;;;0.13;100.00;101616.78;5031946;28;20043;-82
2021/11/11 04:28:59;;;;;;;25.63;14.57;;;;;;;0.13;100.00;101614.19;5015431;28;20041;-82
2021/11/11 04:34:02;;;;;;;21.20;12.50;;;;;;;0.09;100.00;101625.28;5013788;28;20053;-83
2021/11/11 04:44:54;;;;;;;25.30;15.20;;;;;;;0.10;100.00;101634.84;4942055;28;20086;-82
2021/11/11 04:52:36;;;;;;;21.47;13.10;;;;;;;0.15;100.00;101625.50;4976576;28;20045;-81
2021/11/11 05:01:12;;;;;;;22.90;13.97;;;;;;;0.12;100.00;101609.81;4977564;28;20046;-81
2021/11/11 05:03:43;;;;;;;20.80;13.37;;;;;;;0.11;100.00;101610.66;4938512;28;20083;-80
2021/11/11 05:06:10;;;;;;;22.50;13.87;;;;;;;0.16;100.00;101619.47;5018425;28;20048;-81
2021/11/11 05:08:38;;;;;;;21.33;12.77;;;;;;;0.18;100.00;101617.84;5017997;28;20868;-80
2021/11/11 05:11:04;;;;;;;21.77;12.57;;;;;;;0.10;100.00;101614.97;5032953;28;20042;-82
2021/11/11 05:13:32;;;;;;;21.57;14.13;;;;;;;0.07;100.00;101620.00;5027397;28;20049;-81
2021/11/11 05:15:58;;;;;;;21.80;13.53;;;;;;;0.08;100.00;101619.19;5012442;28;20044;-81
2021/11/11 05:18:25;;;;;;;23.57;13.97;;;;;;;0.11;100.00;101615.84;5010147;28;20826;-80
2021/11/11 05:20:52;;;;;;;21.20;12.93;;;;;;;0.14;100.00;101611.63;5012013;28;20545;-81
2021/11/11 05:23:19;;;;;;;22.70;14.60;;;;;;;0.15;100.00;101610.78;5018568;28;20665;-81
2021/11/11 05:25:46;;;;;;;21.33;13.53;;;;;;;0.17;100.00;101609.16;5019158;28;20041;-80
2021/11/11 05:28:16;;;;;;;28.07;15.03;;;;;;;0.23;100.00;101611.06;5033356;28;20453;-81
2021/11/11 05:30:43;;;;;;;24.83;15.43;;;;;;;0.24;100.00;101612.84;5034315;28;20122;-81
2021/11/11 05:33:10;;;;;;;24.90;14.57;;;;;;;0.22;100.00;101611.91;5016412;28;20042;-80
2021/11/11 05:35:36;;;;;;;21.30;13.47;;;;;;;0.32;100.00;101611.41;5016609;28;20128;-80
2021/11/11 05:38:03;;;;;;;20.80;13.37;;;;;;;0.28;100.00;101620.81;5016606;28;20041;-80
2021/11/11 05:40:31;;;;;;;23.03;13.90;;;;;;;0.23;100.00;101619.75;5009337;28;20052;-81
2021/11/11 05:42:58;;;;;;;21.97;13.53;;;;;;;0.24;100.00;101618.03;5007785;28;20036;-80
2021/11/11 05:45:26;;;;;;;20.90;12.70;;;;;;;0.26;100.00;101629.41;5033537;28;20055;-81
2021/11/11 05:47:52;;;;;;;19.37;12.33;;;;;;;0.26;100.00;101627.69;5036440;28;20045;-81
2021/11/11 05:50:20;;;;;;;21.87;12.97;;;;;;;0.25;100.00;101622.41;5018670;28;20048;-81
2021/11/11 05:52:48;;;;;;;20.03;13.00;;;;;;;0.26;100.00;101616.41;4999540;28;20442;-81
2021/11/11 05:55:15;;;;;;;21.30;13.30;;;;;;;0.30;100.00;101623.47;5004008;28;20049;-81
2021/11/11 05:57:41;;;;;;;22.23;13.20;;;;;;;0.33;100.00;101628.78;4973131;28;20045;-80
2021/11/11 06:00:10;;;;;;;24.27;13.57;;;;;;;0.38;100.00;101619.44;5035572;28;20052;-81
2021/11/11 06:02:37;;;;;;;21.70;13.87;;;;;;;0.37;100.00;101635.88;4989093;28;20042;-80
2021/11/11 06:05:04;;;;;;;23.70;14.73;;;;;;;0.38;100.00;101622.03;5002926;28;20045;-81
2021/11/11 06:07:31;;;;;;;19.87;12.93;;;;;;;0.40;100.00;101628.16;4952682;28;20045;-80
2021/11/11 06:09:58;;;;;;;21.77;13.70;;;;;;;0.40;100.00;101633.38;5015070;28;20043;-81
2021/11/11 06:12:24;;;;;;;21.20;13.33;;;;;;;0.41;100.00;101631.66;5000023;28;20045;-81
2021/11/11 06:14:51;;;;;;;21.40;13.43;;;;;;;0.42;100.00;101629.13;5018459;28;20128;-81
2021/11/11 06:17:18;;;;;;;19.93;12.97;;;;;;;0.43;100.00;101632.63;5002081;28;20041;-82
2021/11/11 06:19:46;;;;;;;20.37;12.50;;;;;;;0.43;100.00;101628.31;5002834;28;20045;-81
2021/11/11 06:22:13;;;;;;;22.87;14.57;;;;;;;0.40;100.00;101625.56;5021009;28;20048;-81
2021/11/11 06:24:40;;;;;;;20.80;12.97;;;;;;;0.42;100.00;101626.53;5017921;28;20041;-81
2021/11/11 06:27:06;;;;;;;21.23;13.27;;;;;;;0.45;100.00;101629.22;5019305;28;20421;-80
2021/11/11 06:29:33;;;;;;;19.33;12.37;;;;;;;0.43;100.00;101622.22;5003267;28;20042;-82
2021/11/11 06:32:01;;;;;;;20.80;12.90;;;;;;;0.42;100.00;101625.63;5008168;28;20147;-82
2021/11/11 06:34:48;;;;;;;21.10;12.00;;;;;;;0.41;100.00;101611.72;5031606;28;20465;-82
2021/11/11 06:37:14;;;;;;;20.33;13.97;;;;;;;0.42;100.00;101621.34;5022521;28;20056;-83
2021/11/11 06:39:41;;;;;;;18.47;12.20;;;;;;;0.61;100.00;101628.06;5012575;28;20037;-83
2021/11/11 06:42:08;;;;;;;20.13;12.07;;;;;;;0.48;100.00;101628.44;5032335;28;20045;-83
2021/11/11 06:44:35;;;;;;;21.37;13.27;;;;;;;0.53;100.00;101633.00;5026967;28;20095;-83
2021/11/11 06:47:02;;;;;;;20.70;13.33;;;;;;;0.47;100.00;101631.88;4994686;28;20041;-83
2021/11/11 06:49:29;;;;;;;20.40;12.80;;;;;;;0.46;100.00;101636.19;4983779;28;20045;-82
2021/11/11 06:51:56;;;;;;;21.63;14.00;;;;;;;0.44;100.00;101642.19;5038098;28;20045;-83
2021/11/11 06:54:22;;;;;;;20.00;12.33;;;;;;;0.45;100.00;101638.75;5021054;28;20053;-84
2021/11/11 06:56:49;;;;;;;19.17;12.90;;;;;;;0.47;100.00;101643.16;5021930;28;20041;-83
2021/11/11 06:59:16;;;;;;;20.87;14.23;;;;;;;0.49;100.00;101645.81;5038960;28;20037;-83
2021/11/11 07:01:43;;;;;;;21.23;13.00;;;;;;;0.53;100.00;101648.59;4971329;28;20113;-83
2021/11/11 07:04:10;;;;;;;18.87;12.53;;;;;;;0.55;100.00;101659.03;5021934;28;20051;-83
2021/11/11 07:06:37;;;;;;;23.40;14.17;;;;;;;0.64;100.00;101656.75;5022955;28;20134;-83
2021/11/11 07:09:04;;;;;;;21.13;13.07;;;;;;;0.63;100.00;101657.59;5021882;28;20418;-83
2021/11/11 07:11:35;;;;;;;21.60;14.07;;;;;;;0.67;100.00;101653.38;5021267;28;20124;-82
2021/11/11 07:14:01;;;;;;;21.50;13.53;;;;;;;0.68;100.00;101650.84;4985798;28;20049;-81
2021/11/11 07:16:28;;;;;;;20.43;13.80;;;;;;;0.74;100.00;101655.38;5079823;23;20453;-83
2021/11/11 07:18:55;;;;;;;20.10;13.40;;;;;;;0.75;100.00;101646.72;5013916;28;20097;-81
2021/11/11 07:21:22;;;;;;;19.60;13.37;;;;;;;0.80;100.00;101648.69;4932648;28;20075;-81
2021/11/11 07:23:49;;;;;;;23.40;14.27;;;;;;;0.86;100.00;101652.34;4945095;28;20413;-80
2021/11/11 07:26:16;;;;;;;22.10;14.70;;;;;;;1.02;100.00;101654.63;5013552;28;20502;-80
2021/11/11 07:28:43;;;;;;;23.07;14.33;;;;;;;1.15;100.00;101666.34;4996306;28;20050;-81
2021/11/11 07:31:10;;;;;;;19.60;13.20;;;;;;;1.09;100.00;101657.50;4915962;28;20053;-82
2021/11/11 07:33:37;;;;;;;19.60;13.53;;;;;;;1.13;100.00;101667.16;5010348;28;20126;-82
2021/11/11 07:36:04;;;;;;;21.90;13.63;;;;;;;1.16;100.00;101660.28;4934979;28;20049;-81
2021/11/11 07:38:31;;;;;;;23.33;13.87;;;;;;;1.21;100.00;101666.53;4964946;28;20049;-81
2021/11/11 07:40:58;;;;;;;21.43;13.40;;;;;;;1.26;100.00;101664.97;4940026;28;20039;-81
2021/11/11 07:43:25;;;;;;;23.87;13.60;;;;;;;1.33;100.00;101678.22;4982598;28;20051;-81
2021/11/11 07:45:52;;;;;;;20.97;13.33;;;;;;;1.42;100.00;101678.53;5006851;28;20041;-82
2021/11/11 07:48:19;;;;;;;23.20;13.80;;;;;;;1.43;100.00;101679.44;4959891;28;20107;-81
2021/11/11 07:50:45;;;;;;;21.73;14.33;;;;;;;1.50;100.00;101675.31;4962887;28;20066;-81
2021/11/11 07:53:12;;;;;;;25.40;14.57;;;;;;;1.56;100.00;101670.31;4933193;28;20106;-82
2021/11/11 07:55:40;;;;;;;23.77;13.03;;;;;;;1.54;100.00;101657.22;4951479;28;20051;-82
2021/11/11 07:58:07;;;;;;;26.13;14.60;;;;;;;1.63;100.00;101667.06;4985321;28;20091;-82
2021/11/11 08:00:35;;;;;;;25.50;15.17;;;;;;;1.81;100.00;101670.25;5003977;28;20624;-82
2021/11/11 08:03:02;;;;;;;22.37;14.50;;;;;;;1.87;100.00;101667.84;5012725;28;20041;-83
2021/11/11 08:05:29;;;;;;;28.03;15.53;;;;;;;1.85;100.00;101672.13;4945963;28;20041;-82
2021/11/11 08:07:56;;;;;;;24.47;13.37;;;;;;;1.87;100.00;101657.41;5012644;28;20069;-83
2021/11/11 08:10:23;;;;;;;28.00;14.57;;;;;;;1.91;100.00;101667.06;4929203;28;20410;-82
2021/11/11 08:12:50;;;;;;;25.73;14.40;;;;;;;2.04;100.00;101675.28;4973889;28;20045;-83
2021/11/11 08:15:18;;;;;;;25.70;15.33;;;;;;;2.12;100.00;101669.47;4931827;28;20687;-82
2021/11/11 08:17:45;;;;;;;26.33;15.20;;;;;;;2.16;100.00;101668.69;5015162;28;20049;-83
2021/11/11 08:20:13;;;;;;;25.37;16.13;;;;;;;2.20;100.00;101664.47;4997980;28;20044;-83
2021/11/11 08:22:41;;;;;;;26.53;15.90;;;;;;;2.37;100.00;101670.19;5031469;28;20490;-83
2021/11/11 08:25:10;;;;;;;26.23;15.87;;;;;;;2.37;100.00;101667.59;5008366;28;20099;-84
2021/11/11 08:27:39;;;;;;;26.33;15.37;;;;;;;2.44;100.00;101651.28;5032478;28;20047;-83
2021/11/11 08:30:07;;;;;;;24.00;15.10;;;;;;;2.50;100.00;101654.91;4931976;28;20064;-84
2021/11/11 08:32:41;;;;;;;22.73;13.50;;;;;;;2.54;100.00;101648.06;5029907;28;20139;-82
2021/11/11 08:35:08;;;;;;;25.57;14.83;;;;;;;2.57;100.00;101653.38;5014879;28;20052;-82
2021/11/11 08:37:34;;;;;;;26.47;15.57;;;;;;;2.60;100.00;101652.56;4935617;28;20418;-82
2021/11/11 08:40:03;;;;;;;24.00;15.47;;;;;;;2.66;100.00;101666.66;4938338;28;20563;-83
2021/11/11 08:42:30;;;;;;;23.60;14.43;;;;;;;2.71;100.00;101658.97;4999680;28;20064;-83
2021/11/11 08:44:57;;;;;;;23.57;14.60;;;;;;;2.78;100.00;101659.19;4946204;28;20051;-83
2021/11/11 08:47:23;;;;;;;26.80;15.83;;;;;;;2.87;100.00;101648.13;4930227;28;20049;-82
2021/11/11 08:49:53;;;;;;;22.70;15.13;;;;;;;3.02;100.00;101652.84;4944212;28;20064;-83
2021/11/11 08:52:21;;;;;;;25.13;16.87;;;;;;;3.10;100.00;101635.63;4915308;28;20052;-83
2021/11/11 08:54:54;;;;;;;28.43;17.73;;;;;;;3.32;100.00;101630.13;4978726;28;20050;-83
2021/11/11 08:57:21;;;;;;;28.77;17.53;;;;;;;3.48;100.00;101638.34;4979331;28;20060;-84
2021/11/11 09:00:05;;;;;;;26.83;15.73;;;;;;;3.60;100.00;101630.78;4939930;28;20041;-83
2021/11/11 09:02:32;;;;;;;45.23;27.33;;;;;;;3.74;100.00;101621.53;5009340;28;20045;-83
2021/11/11 09:05:00;;;;;;;34.37;19.33;;;;;;;3.86;100.00;101628.75;5011253;28;20215;-84
2021/11/11 09:07:26;;;;;;;30.53;17.70;;;;;;;3.90;100.00;101625.38;5012629;28;20049;-84
2021/11/11 09:09:53;;;;;;;29.47;16.73;;;;;;;3.94;100.00;101622.84;4995100;28;20045;-84
2021/11/11 09:12:20;;;;;;;26.77;16.27;;;;;;;4.01;100.00;101629.09;4980375;28;20045;-85
2021/11/11 09:14:46;;;;;;;27.47;16.90;;;;;;;4.04;100.00;101621.34;4978796;28;20045;-85
2021/11/11 09:17:13;;;;;;;28.23;17.30;;;;;;;4.14;100.00;101622.41;4998678;28;20045;-84
2021/11/11 09:19:40;;;;;;;28.97;16.23;;;;;;;4.17;100.00;101623.34;4944116;28;20052;-85
2021/11/11 09:22:07;;;;;;;29.90;18.10;;;;;;;4.28;100.00;101622.69;4915208;28;20073;-85
2021/11/11 09:24:34;;;;;;;30.70;17.60;;;;;;;4.31;100.00;101626.25;4912956;28;20569;-82
2021/11/11 09:27:01;;;;;;;31.43;17.30;;;;;;;4.45;100.00;101626.50;4982671;28;20057;-84
2021/11/11 09:29:28;;;;;;;28.53;16.87;;;;;;;4.52;100.00;101631.03;4916441;28;20128;-84
2021/11/11 09:31:55;;;;;;;27.73;17.67;;;;;;;4.50;100.00;101627.50;4917642;28;20131;-84
2021/11/11 09:34:21;;;;;;;28.07;17.17;;;;;;;4.54;100.00;101631.97;4931811;28;20060;-84
2021/11/11 09:36:48;;;;;;;23.83;15.73;;;;;;;4.56;100.00;101630.25;4917885;28;20041;-84
2021/11/11 09:39:15;;;;;;;26.80;15.87;;;;;;;4.60;100.00;101637.28;4916190;28;20132;-85
2021/11/11 09:41:42;;;;;;;27.73;17.07;;;;;;;4.70;100.00;101633.09;4933354;28;20081;-86
2021/11/11 09:44:09;;;;;;;34.97;18.83;;;;;;;4.79;100.00;101617.56;4916633;28;20044;-85
2021/11/11 09:46:36;;;;;;;28.97;18.13;;;;;;;4.93;100.00;101617.84;4952272;28;20538;-85
2021/11/11 09:49:04;;;;;;;31.80;19.23;;;;;;;5.01;100.00;101618.84;4935030;28;20051;-84
2021/11/11 09:51:31;;;;;;;32.63;19.77;;;;;;;5.09;100.00;101618.13;4936361;28;20056;-85
2021/11/11 09:59:20;;;;;;;31.23;19.27;;;;;;;5.28;100.00;101614.06;4948465;28;20057;-86
2021/11/11 10:01:48;;;;;;;26.93;16.63;;;;;;;5.33;100.00;101615.03;4999189;28;20037;-85
2021/11/11 10:04:15;;;;;;;27.60;18.43;;;;;;;5.40;100.00;101610.78;4954113;28;20051;-85
2021/11/11 10:06:42;;;;;;;30.30;19.17;;;;;;;5.44;100.00;101611.69;4951186;28;20425;-85
2021/11/11 10:09:27;;;;;;;29.53;17.87;;;;;;;5.54;100.00;101610.97;4951684;28;20048;-87
2021/11/11 10:11:59;;;;;;;30.40;16.73;;;;;;;5.54;100.00;101605.75;5017374;28;20137;-86
2021/11/11 10:14:33;;;;;;;29.63;17.77;;;;;;;5.48;100.00;101614.41;4966444;28;20048;-85
2021/11/11 10:17:04;;;;;;;30.87;17.97;;;;;;;5.47;100.00;101612.66;4964704;28;20526;-85
2021/11/11 10:19:35;;;;;;;24.67;16.40;;;;;;;5.48;100.00;101613.53;4982019;28;20053;-83
2021/11/11 10:22:18;;;;;;;30.23;19.80;;;;;;;5.48;100.00;101611.78;4983034;28;20049;-83
2021/11/11 10:24:50;;;;;;;28.77;18.13;;;;;;;5.49;100.00;101610.94;4998125;28;20049;-82
2021/11/11 10:27:28;;;;;;;28.65;17.33;;;;;;;5.48;100.00;101608.28;5015173;28;20045;-83
2021/11/11 10:30:03;;;;;;;33.00;20.47;;;;;;;5.59;100.00;101604.97;4982863;28;20080;-83
2021/11/11 10:32:38;;;;;;;28.73;16.30;;;;;;;5.58;100.00;101597.06;4983314;28;20052;-83
2021/11/11 10:35:12;;;;;;;29.50;16.73;;;;;;;5.56;100.00;101596.19;4997654;28;20052;-83
2021/11/11 10:38:04;;;;;;;28.97;17.63;;;;;;;5.53;100.00;101601.34;4998293;28;20053;-82
2021/11/11 10:40:52;;;;;;;35.40;22.77;;;;;;;5.53;100.00;101598.75;5031634;28;20107;-83
2021/11/11 10:43:25;;;;;;;33.60;23.17;;;;;;;5.53;100.00;101598.75;5028039;28;20139;-83
2021/11/11 10:45:53;;;;;;;26.60;17.30;;;;;;;5.51;100.00;101597.84;4993164;28;20056;-84
2021/11/11 10:48:23;;;;;;;32.40;17.60;;;;;;;5.47;100.00;101603.91;4931030;28;20517;-84
2021/11/11 10:50:57;;;;;;;31.10;16.43;;;;;;;5.56;100.00;101598.81;4917083;28;20096;-84
2021/11/11 10:53:27;;;;;;;26.40;15.88;;;;;;;5.54;100.00;101598.75;4946499;28;20824;-86
2021/11/11 10:55:59;;;;;;;26.13;15.57;;;;;;;5.51;100.00;101588.22;4931915;28;20041;-84
2021/11/11 10:58:31;;;;;;;29.10;16.33;;;;;;;5.59;100.00;101597.09;4930587;28;20050;-83
2021/11/11 11:01:10;;;;;;;26.23;14.63;;;;;;;5.53;100.00;101596.13;4945016;28;20528;-84
2021/11/11 11:03:42;;;;;;;26.80;15.30;;;;;;;5.48;100.00;101606.53;4930647;28;20494;-84
2021/11/11 11:06:17;;;;;;;25.27;14.40;;;;;;;5.53;100.00;101597.00;4931981;28;20050;-83
2021/11/11 11:08:49;;;;;;;24.70;14.33;;;;;;;5.56;100.00;101604.94;5013301;28;20052;-86
2021/11/11 11:11:18;;;;;;;26.63;15.43;;;;;;;5.56;100.00;101602.31;5033977;28;20521;-88
2021/11/11 11:13:53;;;;;;;27.53;15.63;;;;;;;5.60;100.00;101603.22;4931609;28;20041;-86
2021/11/11 11:16:22;;;;;;;22.70;12.73;;;;;;;5.52;100.00;101610.97;4968558;28;20045;-85
2021/11/11 11:18:58;;;;;;;23.00;13.07;;;;;;;5.46;100.00;101600.38;4914363;28;20049;-83
2021/11/11 11:21:37;;;;;;;23.27;15.00;;;;;;;5.47;100.00;101609.16;4932218;28;20045;-83
2021/11/11 11:24:28;;;;;;;23.73;15.43;;;;;;;5.49;100.00;101604.81;4947846;28;20080;-81
2021/11/11 11:27:02;;;;;;;22.73;13.43;;;;;;;5.54;100.00;101600.50;4935376;28;20044;-82
2021/11/11 11:29:37;;;;;;;24.20;14.47;;;;;;;5.51;100.00;101609.19;4933493;28;20192;-82
2021/11/11 11:32:18;;;;;;;21.30;14.53;;;;;;;5.49;100.00;101605.69;5003213;28;20043;-82
2021/11/11 11:34:51;;;;;;;18.90;11.90;;;;;;;5.48;100.00;101593.44;5032371;28;20099;-85
2021/11/11 11:37:20;;;;;;;23.73;15.23;;;;;;;5.54;100.00;101603.13;5022096;28;20069;-82
2021/11/11 11:39:53;;;;;;;21.77;13.43;;;;;;;5.55;100.00;101599.63;4970966;28;20055;-84
2021/11/11 11:42:24;;;;;;;31.53;17.63;;;;;;;5.55;100.00;101603.16;5021000;28;20107;-83
2021/11/11 11:44:53;;;;;;;24.17;13.47;;;;;;;5.52;100.00;101599.59;4948984;28;20068;-83
2021/11/11 11:47:33;;;;;;;22.10;13.13;;;;;;;5.56;100.00;101594.44;4934860;28;20051;-82
2021/11/11 11:50:08;;;;;;;23.20;13.07;;;;;;;5.53;100.00;101586.50;5031909;28;20123;-82
2021/11/11 11:52:37;;;;;;;20.63;11.67;;;;;;;5.54;100.00;101593.50;4943181;28;20391;-83